sensor_id;sensor_type;location;lat;lon;timestamp;pressure;altitude;pressure_sealevel;temperature
49785;BMP280;35679;38.732;-121.358;2022-09-09T00:03:18;99819.97;;;30.22
49785;BMP280;35679;38.732;-121.358;2022-09-09T00:06:21;99810.03;;;30.18
49785;BMP280;35679;38.732;-121.358;2022-09-09T00:09:25;99811.97;;;30.17
49785;BMP280;35679;38.732;-121.358;2022-09-09T00:15:19;99797.38;;;30.22
49785;BMP280;35679;38.732;-121.358;2022-09-09T00:18:26;99794.03;;;30.16
49785;BMP280;35679;38.732;-121.358;2022-09-09T00:21:18;99795.00;;;30.20
49785;BMP280;35679;38.732;-121.358;2022-09-09T00:24:28;99790.03;;;30.22
49785;BMP280;35679;38.732;-121.358;2022-09-09T00:27:37;99779.44;;;30.21
49785;BMP280;35679;38.732;-121.358;2022-09-09T00:30:35;99777.88;;;30.20
49785;BMP280;35679;38.732;-121.358;2022-09-09T00:33:26;99783.31;;;30.20
49785;BMP280;35679;38.732;-121.358;2022-09-09T00:36:20;99770.81;;;30.19
49785;BMP280;35679;38.732;-121.358;2022-09-09T00:42:41;99771.59;;;30.19
49785;BMP280;35679;38.732;-121.358;2022-09-09T00:46:10;99765.84;;;30.21
49785;BMP280;35679;38.732;-121.358;2022-09-09T00:52:19;99764.28;;;30.20
49785;BMP280;35679;38.732;-121.358;2022-09-09T00:58:12;99748.09;;;30.15
49785;BMP280;35679;38.732;-121.358;2022-09-09T01:01:10;99751.44;;;30.12
49785;BMP280;35679;38.732;-121.358;2022-09-09T01:04:00;99756.41;;;30.18
49785;BMP280;35679;38.732;-121.358;2022-09-09T01:07:02;99758.47;;;30.13
49785;BMP280;35679;38.732;-121.358;2022-09-09T01:09:56;99750.66;;;30.11
49785;BMP280;35679;38.732;-121.358;2022-09-09T01:12:47;99749.81;;;30.11
49785;BMP280;35679;38.732;-121.358;2022-09-09T01:15:40;99751.94;;;30.14
49785;BMP280;35679;38.732;-121.358;2022-09-09T01:18:54;99748.38;;;30.13
49785;BMP280;35679;38.732;-121.358;2022-09-09T01:25:11;99753.03;;;30.13
49785;BMP280;35679;38.732;-121.358;2022-09-09T01:28:25;99754.16;;;30.12
49785;BMP280;35679;38.732;-121.358;2022-09-09T01:31:36;99754.00;;;30.17
49785;BMP280;35679;38.732;-121.358;2022-09-09T01:34:30;99754.66;;;30.14
49785;BMP280;35679;38.732;-121.358;2022-09-09T01:37:20;99752.72;;;30.14
49785;BMP280;35679;38.732;-121.358;2022-09-09T01:40:10;99749.03;;;30.10
49785;BMP280;35679;38.732;-121.358;2022-09-09T01:43:00;99744.25;;;30.07
49785;BMP280;35679;38.732;-121.358;2022-09-09T01:45:53;99745.53;;;30.10
49785;BMP280;35679;38.732;-121.358;2022-09-09T01:48:44;99744.53;;;30.06
49785;BMP280;35679;38.732;-121.358;2022-09-09T01:51:36;99747.88;;;29.94
49785;BMP280;35679;38.732;-121.358;2022-09-09T01:54:32;99741.00;;;29.97
49785;BMP280;35679;38.732;-121.358;2022-09-09T02:00:20;99750.28;;;29.96
49785;BMP280;35679;38.732;-121.358;2022-09-09T02:03:27;99745.31;;;29.89
49785;BMP280;35679;38.732;-121.358;2022-09-09T02:09:27;99741.09;;;29.84
49785;BMP280;35679;38.732;-121.358;2022-09-09T02:12:21;99731.81;;;29.85
49785;BMP280;35679;38.732;-121.358;2022-09-09T02:16:04;99735.97;;;29.82
49785;BMP280;35679;38.732;-121.358;2022-09-09T02:18:48;99739.94;;;29.76
49785;BMP280;35679;38.732;-121.358;2022-09-09T02:21:47;99729.53;;;29.70
49785;BMP280;35679;38.732;-121.358;2022-09-09T02:24:39;99728.72;;;29.69
49785;BMP280;35679;38.732;-121.358;2022-09-09T02:27:44;99726.81;;;29.70
49785;BMP280;35679;38.732;-121.358;2022-09-09T02:30:36;99727.63;;;29.70
49785;BMP280;35679;38.732;-121.358;2022-09-09T02:33:30;99717.19;;;29.64
49785;BMP280;35679;38.732;-121.358;2022-09-09T02:36:28;99726.00;;;29.61
49785;BMP280;35679;38.732;-121.358;2022-09-09T02:39:19;99719.75;;;29.60
49785;BMP280;35679;38.732;-121.358;2022-09-09T02:42:10;99737.66;;;29.61
49785;BMP280;35679;38.732;-121.358;2022-09-09T02:45:00;99729.00;;;29.59
49785;BMP280;35679;38.732;-121.358;2022-09-09T02:51:26;99717.81;;;29.52
49785;BMP280;35679;38.732;-121.358;2022-09-09T02:54:26;99721.28;;;29.44
49785;BMP280;35679;38.732;-121.358;2022-09-09T02:57:27;99724.97;;;29.48
49785;BMP280;35679;38.732;-121.358;2022-09-09T03:00:25;99725.94;;;29.44
49785;BMP280;35679;38.732;-121.358;2022-09-09T03:03:20;99729.75;;;29.43
49785;BMP280;35679;38.732;-121.358;2022-09-09T03:06:11;99731.81;;;29.37
49785;BMP280;35679;38.732;-121.358;2022-09-09T03:09:03;99733.41;;;29.38
49785;BMP280;35679;38.732;-121.358;2022-09-09T03:11:54;99728.00;;;29.47
49785;BMP280;35679;38.732;-121.358;2022-09-09T03:14:46;99738.94;;;29.64
49785;BMP280;35679;38.732;-121.358;2022-09-09T03:17:35;99729.72;;;29.73
49785;BMP280;35679;38.732;-121.358;2022-09-09T03:20:27;99736.94;;;29.86
49785;BMP280;35679;38.732;-121.358;2022-09-09T03:23:17;99748.19;;;29.93
49785;BMP280;35679;38.732;-121.358;2022-09-09T03:26:07;99736.53;;;30.01
49785;BMP280;35679;38.732;-121.358;2022-09-09T03:29:04;99738.63;;;30.04
49785;BMP280;35679;38.732;-121.358;2022-09-09T03:31:57;99738.94;;;30.11
49785;BMP280;35679;38.732;-121.358;2022-09-09T03:34:47;99735.78;;;30.17
49785;BMP280;35679;38.732;-121.358;2022-09-09T03:37:38;99741.34;;;30.21
49785;BMP280;35679;38.732;-121.358;2022-09-09T03:40:29;99745.34;;;30.23
49785;BMP280;35679;38.732;-121.358;2022-09-09T03:43:19;99749.38;;;30.26
49785;BMP280;35679;38.732;-121.358;2022-09-09T03:46:11;99751.47;;;30.29
49785;BMP280;35679;38.732;-121.358;2022-09-09T03:49:00;99753.53;;;30.32
49785;BMP280;35679;38.732;-121.358;2022-09-09T03:51:52;99750.19;;;30.35
49785;BMP280;35679;38.732;-121.358;2022-09-09T03:54:42;99757.72;;;30.38
49785;BMP280;35679;38.732;-121.358;2022-09-09T03:57:32;99758.22;;;30.40
49785;BMP280;35679;38.732;-121.358;2022-09-09T04:00:27;99765.25;;;30.41
49785;BMP280;35679;38.732;-121.358;2022-09-09T04:03:18;99760.31;;;30.43
49785;BMP280;35679;38.732;-121.358;2022-09-09T04:06:13;99759.97;;;30.44
49785;BMP280;35679;38.732;-121.358;2022-09-09T04:09:06;99771.38;;;30.46
49785;BMP280;35679;38.732;-121.358;2022-09-09T04:11:56;99778.09;;;30.49
49785;BMP280;35679;38.732;-121.358;2022-09-09T04:14:46;99767.19;;;30.49
49785;BMP280;35679;38.732;-121.358;2022-09-09T04:17:35;99775.88;;;30.51
49785;BMP280;35679;38.732;-121.358;2022-09-09T04:20:25;99778.91;;;30.49
49785;BMP280;35679;38.732;-121.358;2022-09-09T04:23:15;99782.41;;;30.50
49785;BMP280;35679;38.732;-121.358;2022-09-09T04:26:05;99772.31;;;30.50
49785;BMP280;35679;38.732;-121.358;2022-09-09T04:28:55;99773.94;;;30.51
49785;BMP280;35679;38.732;-121.358;2022-09-09T04:31:45;99773.59;;;30.53
49785;BMP280;35679;38.732;-121.358;2022-09-09T04:34:35;99776.31;;;30.53
49785;BMP280;35679;38.732;-121.358;2022-09-09T04:37:24;99775.88;;;30.51
49785;BMP280;35679;38.732;-121.358;2022-09-09T04:40:14;99779.38;;;30.51
49785;BMP280;35679;38.732;-121.358;2022-09-09T04:43:04;99775.03;;;30.50
49785;BMP280;35679;38.732;-121.358;2022-09-09T04:45:58;99778.59;;;30.51
49785;BMP280;35679;38.732;-121.358;2022-09-09T04:48:49;99766.88;;;30.50
49785;BMP280;35679;38.732;-121.358;2022-09-09T04:51:39;99763.84;;;30.52
49785;BMP280;35679;38.732;-121.358;2022-09-09T04:54:29;99772.81;;;30.52
49785;BMP280;35679;38.732;-121.358;2022-09-09T04:57:19;99768.47;;;30.51
49785;BMP280;35679;38.732;-121.358;2022-09-09T05:00:08;99772.03;;;30.52
49785;BMP280;35679;38.732;-121.358;2022-09-09T05:03:03;99776.66;;;30.51
49785;BMP280;35679;38.732;-121.358;2022-09-09T05:05:54;99781.31;;;30.51
49785;BMP280;35679;38.732;-121.358;2022-09-09T05:08:45;99773.13;;;30.51
49785;BMP280;35679;38.732;-121.358;2022-09-09T05:11:37;99768.81;;;30.50
49785;BMP280;35679;38.732;-121.358;2022-09-09T05:14:47;99774.25;;;30.50
49785;BMP280;35679;38.732;-121.358;2022-09-09T05:17:37;99770.41;;;30.51
49785;BMP280;35679;38.732;-121.358;2022-09-09T05:20:27;99774.75;;;30.52
49785;BMP280;35679;38.732;-121.358;2022-09-09T05:23:17;99770.09;;;30.52
49785;BMP280;35679;38.732;-121.358;2022-09-09T05:26:11;99776.31;;;30.53
49785;BMP280;35679;38.732;-121.358;2022-09-09T05:29:07;99771.69;;;30.53
49785;BMP280;35679;38.732;-121.358;2022-09-09T05:31:57;99768.16;;;30.53
49785;BMP280;35679;38.732;-121.358;2022-09-09T05:34:46;99764.66;;;30.52
49785;BMP280;35679;38.732;-121.358;2022-09-09T05:37:36;99765.44;;;30.53
49785;BMP280;35679;38.732;-121.358;2022-09-09T05:40:26;99766.56;;;30.52
49785;BMP280;35679;38.732;-121.358;2022-09-09T05:43:16;99765.44;;;30.53
49785;BMP280;35679;38.732;-121.358;2022-09-09T05:46:11;99768.47;;;30.51
49785;BMP280;35679;38.732;-121.358;2022-09-09T05:49:02;99762.25;;;30.51
49785;BMP280;35679;38.732;-121.358;2022-09-09T05:51:53;99767.69;;;30.51
49785;BMP280;35679;38.732;-121.358;2022-09-09T05:54:43;99763.84;;;30.52
49785;BMP280;35679;38.732;-121.358;2022-09-09T05:57:33;99763.84;;;30.52
49785;BMP280;35679;38.732;-121.358;2022-09-09T06:00:23;99766.88;;;30.50
49785;BMP280;35679;38.732;-121.358;2022-09-09T06:03:12;99768.81;;;30.50
49785;BMP280;35679;38.732;-121.358;2022-09-09T06:06:05;99767.19;;;30.49
49785;BMP280;35679;38.732;-121.358;2022-09-09T06:08:56;99768.31;;;30.48
49785;BMP280;35679;38.732;-121.358;2022-09-09T06:11:52;99766.72;;;30.47
49785;BMP280;35679;38.732;-121.358;2022-09-09T06:14:43;99765.13;;;30.46
49785;BMP280;35679;38.732;-121.358;2022-09-09T06:17:34;99761.59;;;30.45
49785;BMP280;35679;38.732;-121.358;2022-09-09T06:20:24;99762.72;;;30.44
49785;BMP280;35679;38.732;-121.358;2022-09-09T06:23:14;99762.72;;;30.44
49785;BMP280;35679;38.732;-121.358;2022-09-09T06:26:11;99754.03;;;30.42
49785;BMP280;35679;38.732;-121.358;2022-09-09T06:29:03;99759.50;;;30.42
49785;BMP280;35679;38.732;-121.358;2022-09-09T06:31:52;99751.66;;;30.41
49785;BMP280;35679;38.732;-121.358;2022-09-09T06:34:44;99760.94;;;30.40
49785;BMP280;35679;38.732;-121.358;2022-09-09T06:37:34;99752.28;;;30.38
49785;BMP280;35679;38.732;-121.358;2022-09-09T06:40:24;99752.59;;;30.36
49785;BMP280;35679;38.732;-121.358;2022-09-09T06:43:13;99753.72;;;30.35
49785;BMP280;35679;38.732;-121.358;2022-09-09T06:46:16;99758.34;;;30.35
49785;BMP280;35679;38.732;-121.358;2022-09-09T06:49:08;99754.81;;;30.34
49785;BMP280;35679;38.732;-121.358;2022-09-09T06:51:58;99755.97;;;30.33
49785;BMP280;35679;38.732;-121.358;2022-09-09T06:54:48;99750.53;;;30.33
49785;BMP280;35679;38.732;-121.358;2022-09-09T06:57:38;99754.34;;;30.32
49785;BMP280;35679;38.732;-121.358;2022-09-09T07:00:36;99747.31;;;30.31
49785;BMP280;35679;38.732;-121.358;2022-09-09T07:03:28;99746.50;;;30.31
49785;BMP280;35679;38.732;-121.358;2022-09-09T07:06:20;99744.91;;;30.30
49785;BMP280;35679;38.732;-121.358;2022-09-09T07:09:13;99744.41;;;30.28
49785;BMP280;35679;38.732;-121.358;2022-09-09T07:12:06;99746.03;;;30.29
49785;BMP280;35679;38.732;-121.358;2022-09-09T07:14:59;99736.25;;;30.28
49785;BMP280;35679;38.732;-121.358;2022-09-09T07:17:49;99742.50;;;30.28
49785;BMP280;35679;38.732;-121.358;2022-09-09T07:20:38;99747.13;;;30.28
49785;BMP280;35679;38.732;-121.358;2022-09-09T07:23:28;99742.81;;;30.27
49785;BMP280;35679;38.732;-121.358;2022-09-09T07:26:26;99743.91;;;30.26
49785;BMP280;35679;38.732;-121.358;2022-09-09T07:29:17;99747.78;;;30.25
49785;BMP280;35679;38.732;-121.358;2022-09-09T07:32:10;99748.06;;;30.23
49785;BMP280;35679;38.732;-121.358;2022-09-09T07:35:00;99748.91;;;30.24
49785;BMP280;35679;38.732;-121.358;2022-09-09T07:37:49;99745.69;;;30.22
49785;BMP280;35679;38.732;-121.358;2022-09-09T07:40:40;99751.13;;;30.22
49785;BMP280;35679;38.732;-121.358;2022-09-09T07:43:29;99758.19;;;30.23
49785;BMP280;35679;38.732;-121.358;2022-09-09T07:46:20;99752.72;;;30.23
49785;BMP280;35679;38.732;-121.358;2022-09-09T07:49:10;99750.00;;;30.23
49785;BMP280;35679;38.732;-121.358;2022-09-09T07:52:00;99757.69;;;30.21
49785;BMP280;35679;38.732;-121.358;2022-09-09T07:54:51;99751.44;;;30.20
49785;BMP280;35679;38.732;-121.358;2022-09-09T07:57:41;99747.13;;;30.19
49785;BMP280;35679;38.732;-121.358;2022-09-09T08:00:30;99743.94;;;30.17
49785;BMP280;35679;38.732;-121.358;2022-09-09T08:03:22;99738.50;;;30.17
49785;BMP280;35679;38.732;-121.358;2022-09-09T08:06:13;99739.94;;;30.15
49785;BMP280;35679;38.732;-121.358;2022-09-09T08:09:03;99741.84;;;30.14
49785;BMP280;35679;38.732;-121.358;2022-09-09T08:11:53;99742.94;;;30.13
49785;BMP280;35679;38.732;-121.358;2022-09-09T08:14:46;99734.31;;;30.11
49785;BMP280;35679;38.732;-121.358;2022-09-09T08:17:36;99740.09;;;30.10
49785;BMP280;35679;38.732;-121.358;2022-09-09T08:20:28;99736.53;;;30.09
49785;BMP280;35679;38.732;-121.358;2022-09-09T08:23:18;99734.47;;;30.06
49785;BMP280;35679;38.732;-121.358;2022-09-09T08:26:16;99727.75;;;30.04
49785;BMP280;35679;38.732;-121.358;2022-09-09T08:29:07;99728.84;;;30.03
49785;BMP280;35679;38.732;-121.358;2022-09-09T08:31:59;99724.53;;;30.02
49785;BMP280;35679;38.732;-121.358;2022-09-09T08:34:49;99724.03;;;30.00
49785;BMP280;35679;38.732;-121.358;2022-09-09T08:37:43;99719.75;;;29.99
49785;BMP280;35679;38.732;-121.358;2022-09-09T08:40:38;99713.31;;;29.95
49785;BMP280;35679;38.732;-121.358;2022-09-09T08:43:32;99712.84;;;29.93
49785;BMP280;35679;38.732;-121.358;2022-09-09T08:46:28;99711.72;;;29.94
49785;BMP280;35679;38.732;-121.358;2022-09-09T08:55:20;99692.50;;;29.90
49785;BMP280;35679;38.732;-121.358;2022-09-09T09:08:45;99688.00;;;29.86
49785;BMP280;35679;38.732;-121.358;2022-09-09T09:11:15;99686.38;;;29.85
49785;BMP280;35679;38.732;-121.358;2022-09-09T09:14:12;99696.78;;;29.83
49785;BMP280;35679;38.732;-121.358;2022-09-09T09:17:06;99684.31;;;29.82
49785;BMP280;35679;38.732;-121.358;2022-09-09T09:20:00;99678.38;;;29.80
49785;BMP280;35679;38.732;-121.358;2022-09-09T09:22:51;99679.47;;;29.79
49785;BMP280;35679;38.732;-121.358;2022-09-09T09:25:43;99672.47;;;29.78
49785;BMP280;35679;38.732;-121.358;2022-09-09T09:28:34;99673.59;;;29.77
49785;BMP280;35679;38.732;-121.358;2022-09-09T09:31:31;99667.97;;;29.74
49785;BMP280;35679;38.732;-121.358;2022-09-09T09:34:22;99662.53;;;29.74
49785;BMP280;35679;38.732;-121.358;2022-09-09T09:37:15;99659.03;;;29.73
49785;BMP280;35679;38.732;-121.358;2022-09-09T09:40:16;99658.03;;;29.69
49785;BMP280;35679;38.732;-121.358;2022-09-09T09:43:19;99661.91;;;29.68
49785;BMP280;35679;38.732;-121.358;2022-09-09T09:46:21;99657.56;;;29.67
49785;BMP280;35679;38.732;-121.358;2022-09-09T09:49:23;99662.19;;;29.67
49785;BMP280;35679;38.732;-121.358;2022-09-09T09:52:16;99650.03;;;29.64
49785;BMP280;35679;38.732;-121.358;2022-09-09T09:55:13;99647.63;;;29.63
49785;BMP280;35679;38.732;-121.358;2022-09-09T09:58:06;99648.75;;;29.62
49785;BMP280;35679;38.732;-121.358;2022-09-09T10:01:29;99643.63;;;29.60
49785;BMP280;35679;38.732;-121.358;2022-09-09T10:04:22;99640.91;;;29.60
49785;BMP280;35679;38.732;-121.358;2022-09-09T10:07:22;99629.56;;;29.58
49785;BMP280;35679;38.732;-121.358;2022-09-09T10:10:31;99638.84;;;29.57
49785;BMP280;35679;38.732;-121.358;2022-09-09T10:32:48;99636.41;;;29.47
49785;BMP280;35679;38.732;-121.358;2022-09-09T10:35:44;99634.00;;;29.46
49785;BMP280;35679;38.732;-121.358;2022-09-09T10:38:42;99629.19;;;29.43
49785;BMP280;35679;38.732;-121.358;2022-09-09T10:41:59;99626.47;;;29.43
49785;BMP280;35679;38.732;-121.358;2022-09-09T10:48:24;99631.41;;;29.41
49785;BMP280;35679;38.732;-121.358;2022-09-09T10:57:53;99626.94;;;29.36
49785;BMP280;35679;38.732;-121.358;2022-09-09T11:01:18;99624.56;;;29.35
49785;BMP280;35679;38.732;-121.358;2022-09-09T11:04:33;99623.72;;;29.34
49785;BMP280;35679;38.732;-121.358;2022-09-09T11:14:14;99622.00;;;28.12
49785;BMP280;35679;38.732;-121.358;2022-09-09T11:17:12;99624.63;;;27.69
49785;BMP280;35679;38.732;-121.358;2022-09-09T11:20:05;99634.44;;;27.91
49785;BMP280;35679;38.732;-121.358;2022-09-09T11:22:58;99632.47;;;28.05
49785;BMP280;35679;38.732;-121.358;2022-09-09T11:25:57;99629.38;;;27.98
49785;BMP280;35679;38.732;-121.358;2022-09-09T11:31:46;99616.72;;;27.32
49785;BMP280;35679;38.732;-121.358;2022-09-09T11:38:02;99617.59;;;27.54
49785;BMP280;35679;38.732;-121.358;2022-09-09T11:41:05;99630.78;;;27.61
49785;BMP280;35679;38.732;-121.358;2022-09-09T11:43:57;99632.50;;;26.85
49785;BMP280;35679;38.732;-121.358;2022-09-09T11:46:50;99634.06;;;26.59
49785;BMP280;35679;38.732;-121.358;2022-09-09T11:49:43;99631.56;;;26.62
49785;BMP280;35679;38.732;-121.358;2022-09-09T11:52:43;99628.06;;;26.75
49785;BMP280;35679;38.732;-121.358;2022-09-09T11:55:35;99617.03;;;26.72
49785;BMP280;35679;38.732;-121.358;2022-09-09T11:58:25;99624.19;;;26.95
49785;BMP280;35679;38.732;-121.358;2022-09-09T12:01:37;99614.03;;;26.73
49785;BMP280;35679;38.732;-121.358;2022-09-09T12:07:32;99609.72;;;27.04
49785;BMP280;35679;38.732;-121.358;2022-09-09T12:10:27;99609.66;;;26.91
49785;BMP280;35679;38.732;-121.358;2022-09-09T12:13:22;99614.72;;;26.65
49785;BMP280;35679;38.732;-121.358;2022-09-09T12:16:33;99616.56;;;26.38
49785;BMP280;35679;38.732;-121.358;2022-09-09T12:20:08;99615.81;;;26.64
49785;BMP280;35679;38.732;-121.358;2022-09-09T12:29:50;99620.34;;;26.19
49785;BMP280;35679;38.732;-121.358;2022-09-09T12:32:43;99612.53;;;26.17
49785;BMP280;35679;38.732;-121.358;2022-09-09T12:35:33;99618.28;;;25.97
49785;BMP280;35679;38.732;-121.358;2022-09-09T12:38:41;99618.59;;;26.28
49785;BMP280;35679;38.732;-121.358;2022-09-09T12:41:32;99618.28;;;26.29
49785;BMP280;35679;38.732;-121.358;2022-09-09T12:44:21;99621.28;;;26.28
49785;BMP280;35679;38.732;-121.358;2022-09-09T12:47:11;99615.50;;;25.84
49785;BMP280;35679;38.732;-121.358;2022-09-09T12:50:01;99618.84;;;25.94
49785;BMP280;35679;38.732;-121.358;2022-09-09T12:52:52;99613.47;;;25.71
49785;BMP280;35679;38.732;-121.358;2022-09-09T12:55:55;99621.84;;;25.51
49785;BMP280;35679;38.732;-121.358;2022-09-09T12:58:47;99625.16;;;25.25
49785;BMP280;35679;38.732;-121.358;2022-09-09T13:01:39;99619.47;;;25.68
49785;BMP280;35679;38.732;-121.358;2022-09-09T13:04:28;99608.84;;;25.95
49785;BMP280;35679;38.732;-121.358;2022-09-09T13:07:21;99619.66;;;25.77
49785;BMP280;35679;38.732;-121.358;2022-09-09T13:10:11;99619.91;;;25.75
49785;BMP280;35679;38.732;-121.358;2022-09-09T13:13:26;99607.94;;;25.81
49785;BMP280;35679;38.732;-121.358;2022-09-09T13:16:22;99613.13;;;25.96
49785;BMP280;35679;38.732;-121.358;2022-09-09T13:19:16;99616.22;;;25.89
49785;BMP280;35679;38.732;-121.358;2022-09-09T13:22:21;99615.50;;;25.84
49785;BMP280;35679;38.732;-121.358;2022-09-09T13:28:02;99623.47;;;25.71
49785;BMP280;35679;38.732;-121.358;2022-09-09T13:31:03;99617.81;;;25.72
49785;BMP280;35679;38.732;-121.358;2022-09-09T13:33:53;99621.81;;;25.75
49785;BMP280;35679;38.732;-121.358;2022-09-09T13:36:47;99618.38;;;25.69
49785;BMP280;35679;38.732;-121.358;2022-09-09T13:39:38;99618.50;;;25.59
49785;BMP280;35679;38.732;-121.358;2022-09-09T13:42:29;99618.94;;;25.66
49785;BMP280;35679;38.732;-121.358;2022-09-09T13:45:22;99621.41;;;25.63
49785;BMP280;35679;38.732;-121.358;2022-09-09T13:48:18;99622.44;;;25.48
49785;BMP280;35679;38.732;-121.358;2022-09-09T13:51:42;99620.03;;;25.23
49785;BMP280;35679;38.732;-121.358;2022-09-09T13:54:31;99627.22;;;25.33
49785;BMP280;35679;38.732;-121.358;2022-09-09T13:57:22;99621.94;;;25.23
49785;BMP280;35679;38.732;-121.358;2022-09-09T14:00:13;99624.09;;;25.21
49785;BMP280;35679;38.732;-121.358;2022-09-09T14:03:03;99631.41;;;25.20
49785;BMP280;35679;38.732;-121.358;2022-09-09T14:05:52;99637.66;;;25.39
49785;BMP280;35679;38.732;-121.358;2022-09-09T14:08:42;99637.94;;;25.38
49785;BMP280;35679;38.732;-121.358;2022-09-09T14:11:34;99640.06;;;25.17
49785;BMP280;35679;38.732;-121.358;2022-09-09T14:14:23;99655.94;;;25.24
49785;BMP280;35679;38.732;-121.358;2022-09-09T14:17:13;99645.88;;;25.29
49785;BMP280;35679;38.732;-121.358;2022-09-09T14:20:04;99648.50;;;25.34
49785;BMP280;35679;38.732;-121.358;2022-09-09T14:22:57;99649.97;;;25.27
49785;BMP280;35679;38.732;-121.358;2022-09-09T14:25:51;99640.84;;;25.23
49785;BMP280;35679;38.732;-121.358;2022-09-09T14:28:40;99635.91;;;25.07
49785;BMP280;35679;38.732;-121.358;2022-09-09T14:31:42;99634.47;;;24.86
49785;BMP280;35679;38.732;-121.358;2022-09-09T14:34:31;99627.81;;;25.02
49785;BMP280;35679;38.732;-121.358;2022-09-09T14:37:20;99631.78;;;24.86
49785;BMP280;35679;38.732;-121.358;2022-09-09T14:40:10;99626.88;;;24.88
49785;BMP280;35679;38.732;-121.358;2022-09-09T14:43:00;99623.66;;;25.14
49785;BMP280;35679;38.732;-121.358;2022-09-09T14:45:49;99616.84;;;25.21
49785;BMP280;35679;38.732;-121.358;2022-09-09T14:48:40;99614.00;;;25.31
49785;BMP280;35679;38.732;-121.358;2022-09-09T14:51:29;99621.41;;;25.21
49785;BMP280;35679;38.732;-121.358;2022-09-09T14:54:18;99630.03;;;25.46
49785;BMP280;35679;38.732;-121.358;2022-09-09T14:57:09;99626.47;;;25.27
49785;BMP280;35679;38.732;-121.358;2022-09-09T14:59:59;99625.28;;;25.57
49785;BMP280;35679;38.732;-121.358;2022-09-09T15:02:52;99625.31;;;25.75
49785;BMP280;35679;38.732;-121.358;2022-09-09T15:05:41;99627.09;;;25.84
49785;BMP280;35679;38.732;-121.358;2022-09-09T15:08:30;99619.66;;;25.95
49785;BMP280;35679;38.732;-121.358;2022-09-09T15:11:20;99616.56;;;26.01
49785;BMP280;35679;38.732;-121.358;2022-09-09T15:14:11;99622.13;;;26.10
49785;BMP280;35679;38.732;-121.358;2022-09-09T15:17:00;99629.63;;;26.13
49785;BMP280;35679;38.732;-121.358;2022-09-09T15:19:50;99637.38;;;26.19
49785;BMP280;35679;38.732;-121.358;2022-09-09T15:22:41;99648.09;;;26.24
49785;BMP280;35679;38.732;-121.358;2022-09-09T15:25:30;99635.63;;;26.28
49785;BMP280;35679;38.732;-121.358;2022-09-09T15:28:20;99641.47;;;26.35
49785;BMP280;35679;38.732;-121.358;2022-09-09T15:31:17;99640.59;;;26.40
49785;BMP280;35679;38.732;-121.358;2022-09-09T15:34:08;99645.41;;;26.43
49785;BMP280;35679;38.732;-121.358;2022-09-09T15:36:57;99641.03;;;26.47
49785;BMP280;35679;38.732;-121.358;2022-09-09T15:39:48;99633.09;;;26.50
49785;BMP280;35679;38.732;-121.358;2022-09-09T15:42:37;99639.81;;;26.52
49785;BMP280;35679;38.732;-121.358;2022-09-09T15:45:27;99633.03;;;26.55
49785;BMP280;35679;38.732;-121.358;2022-09-09T15:48:16;99637.34;;;26.56
49785;BMP280;35679;38.732;-121.358;2022-09-09T15:51:05;99641.88;;;26.60
49785;BMP280;35679;38.732;-121.358;2022-09-09T15:54:17;99641.28;;;26.63
49785;BMP280;35679;38.732;-121.358;2022-09-09T15:57:10;99640.69;;;26.66
49785;BMP280;35679;38.732;-121.358;2022-09-09T16:00:02;99636.28;;;26.70
49785;BMP280;35679;38.732;-121.358;2022-09-09T16:02:52;99628.69;;;26.72
49785;BMP280;35679;38.732;-121.358;2022-09-09T16:05:41;99629.47;;;26.73
49785;BMP280;35679;38.732;-121.358;2022-09-09T16:08:39;99621.56;;;26.76
49785;BMP280;35679;38.732;-121.358;2022-09-09T16:11:37;99618.25;;;26.79
49785;BMP280;35679;38.732;-121.358;2022-09-09T16:14:27;99616.06;;;26.81
49785;BMP280;35679;38.732;-121.358;2022-09-09T16:17:16;99616.84;;;26.82
49785;BMP280;35679;38.732;-121.358;2022-09-09T16:20:07;99619.78;;;26.85
49785;BMP280;35679;38.732;-121.358;2022-09-09T16:22:57;99626.50;;;26.88
49785;BMP280;35679;38.732;-121.358;2022-09-09T16:25:56;99618.06;;;26.89
49785;BMP280;35679;38.732;-121.358;2022-09-09T16:28:51;99621.28;;;26.91
49785;BMP280;35679;38.732;-121.358;2022-09-09T16:31:43;99624.59;;;26.88
49785;BMP280;35679;38.732;-121.358;2022-09-09T16:34:33;99627.50;;;26.92
49785;BMP280;35679;38.732;-121.358;2022-09-09T16:37:22;99634.72;;;26.96
49785;BMP280;35679;38.732;-121.358;2022-09-09T16:40:11;99639.56;;;26.99
49785;BMP280;35679;38.732;-121.358;2022-09-09T16:43:02;99631.97;;;27.01
49785;BMP280;35679;38.732;-121.358;2022-09-09T16:45:51;99636.78;;;27.04
49785;BMP280;35679;38.732;-121.358;2022-09-09T16:48:42;99642.69;;;27.06
49785;BMP280;35679;38.732;-121.358;2022-09-09T16:51:35;99639.41;;;27.09
49785;BMP280;35679;38.732;-121.358;2022-09-09T16:54:25;99629.06;;;27.11
49785;BMP280;35679;38.732;-121.358;2022-09-09T16:57:15;99623.06;;;27.14
49785;BMP280;35679;38.732;-121.358;2022-09-09T17:00:05;99627.06;;;27.17
49785;BMP280;35679;38.732;-121.358;2022-09-09T17:02:55;99625.94;;;27.17
49785;BMP280;35679;38.732;-121.358;2022-09-09T17:05:44;99633.47;;;27.20
49785;BMP280;35679;38.732;-121.358;2022-09-09T17:08:34;99632.38;;;27.21
49785;BMP280;35679;38.732;-121.358;2022-09-09T17:11:24;99621.25;;;27.23
49785;BMP280;35679;38.732;-121.358;2022-09-09T17:14:16;99616.31;;;27.25
49785;BMP280;35679;38.732;-121.358;2022-09-09T17:17:05;99618.13;;;27.29
49785;BMP280;35679;38.732;-121.358;2022-09-09T17:20:14;99615.94;;;27.31
49785;BMP280;35679;38.732;-121.358;2022-09-09T17:23:05;99609.41;;;27.32
49785;BMP280;35679;38.732;-121.358;2022-09-09T17:25:58;99616.91;;;27.35
49785;BMP280;35679;38.732;-121.358;2022-09-09T17:28:48;99617.13;;;27.39
49785;BMP280;35679;38.732;-121.358;2022-09-09T17:31:41;99614.09;;;27.40
49785;BMP280;35679;38.732;-121.358;2022-09-09T17:34:31;99616.50;;;27.42
49785;BMP280;35679;38.732;-121.358;2022-09-09T17:37:20;99608.88;;;27.44